Nain, Canada
Current Conditions -  °F | °C
As of 8:00 AM on Monday 22 Dec 2014 (Local Time) from CYDP Reporting Station
Clear Clear  
Wind Chill: -6°   Ceiling: Unl
Heat Index:   Visibility: 15mi
Dew Point:   Wind: 12mph
Humidity: 67%   Direction: 230°SW
Pressure: 30.29"   Gusts: NA
Location:  56.55°N, 61.68°W
Report Text: CYDP 221200Z 23010KT 15SM SKC M13/M18 A3029 RMK SLP258
Loading
Personal Weather Stations






























Interactive Weather Map New forecast layout! Learn more

10-Day Weather Forecast

Advertisements
Track Severe Weather on mobile